Time;durP1;ratioP1;P1;durP2;ratioP2;P2;SDS_P1;SDS_P2;PMS_P1;PMS_P2;Temp;Humidity;BMP_temperature;BMP_pressure;BME280_temperature;BME280_humidity;BME280_pressure;Samples;Min_cycle;Max_cycle;Signal;HPM_P1;HPM_P2
2024/02/10 00:01:24;;;;;;;7.90;3.40;;;10.10;99.90;;;;;;6231230;22;20019;-75
2024/02/10 00:03:56;;;;;;;12.80;3.65;;;10.00;99.90;;;;;;6282172;22;20026;-80
2024/02/10 00:06:26;;;;;;;8.77;3.70;;;9.90;99.90;;;;;;6298268;22;20063;-80
2024/02/10 00:08:55;;;;;;;12.43;3.60;;;10.00;99.90;;;;;;6274508;22;20016;-80
2024/02/10 00:11:26;;;;;;;11.40;3.88;;;10.00;99.90;;;;;;6299195;22;20060;-79
2024/02/10 00:13:56;;;;;;;7.32;3.20;;;10.00;99.90;;;;;;6300417;22;20003;-79
2024/02/10 00:16:30;;;;;;;7.75;3.40;;;9.90;99.90;;;;;;6274266;22;20007;-80
2024/02/10 00:19:08;;;;;;;11.75;3.55;;;10.00;99.90;;;;;;6274158;22;20050;-80
2024/02/10 00:21:39;;;;;;;11.57;3.83;;;10.00;99.90;;;;;;6274144;22;20139;-80
2024/02/10 00:24:13;;;;;;;10.35;3.75;;;10.00;99.90;;;;;;6273101;22;20015;-81
2024/02/10 00:26:45;;;;;;;7.95;3.47;;;10.00;99.90;;;;;;6275067;22;20026;-82
2024/02/10 00:29:18;;;;;;;12.25;3.63;;;9.90;99.90;;;;;;6298920;22;20020;-80
2024/02/10 00:31:48;;;;;;;9.02;3.50;;;9.90;99.90;;;;;;6273115;22;20398;-80
2024/02/10 00:34:29;;;;;;;7.25;3.78;;;9.20;99.90;;;;;;6304519;22;20026;-80
2024/02/10 00:37:01;;;;;;;8.65;3.88;;;10.80;99.90;;;;;;6304354;22;20102;-80
2024/02/10 00:39:31;;;;;;;9.48;3.35;;;9.90;99.90;;;;;;6330919;22;20050;-81
2024/02/10 00:42:02;;;;;;;10.43;3.90;;;9.90;99.90;;;;;;6330247;22;20014;-80
2024/02/10 00:44:34;;;;;;;9.50;3.67;;;8.70;99.90;;;;;;6330689;22;20015;-80
2024/02/10 00:47:09;;;;;;;12.25;3.55;;;9.90;99.90;;;;;;6306579;22;20023;-79
2024/02/10 00:49:40;;;;;;;11.73;4.30;;;9.90;99.90;;;;;;6333162;22;20041;-80
2024/02/10 00:52:10;;;;;;;8.40;3.67;;;10.10;99.90;;;;;;6331342;22;20019;-80
2024/02/10 00:54:45;;;;;;;8.15;3.70;;;9.90;99.90;;;;;;6329424;22;20274;-80
2024/02/10 00:57:14;;;;;;;9.98;4.07;;;9.90;99.90;;;;;;6331913;22;20017;-80
2024/02/10 00:59:45;;;;;;;11.90;4.25;;;9.90;99.90;;;;;;6332602;22;20507;-80
2024/02/10 01:02:17;;;;;;;11.70;4.45;;;9.90;99.90;;;;;;6332861;22;20398;-80
2024/02/10 01:04:55;;;;;;;7.40;3.75;;;9.90;99.90;;;;;;6332080;22;20015;-80
2024/02/10 01:07:30;;;;;;;7.43;4.10;;;9.90;99.90;;;;;;6331935;22;20019;-80
2024/02/10 01:09:59;;;;;;;8.32;3.40;;;9.90;99.90;;;;;;6328389;22;20355;-81
2024/02/10 01:12:31;;;;;;;10.40;3.90;;;9.60;99.90;;;;;;6333775;22;20011;-80
2024/02/10 01:15:30;;;;;;;7.13;3.58;;;10.40;99.90;;;;;;6329945;22;20103;-80
2024/02/10 01:18:01;;;;;;;8.32;3.70;;;9.80;99.90;;;;;;6329647;22;20019;-80
2024/02/10 01:20:31;;;;;;;10.35;4.30;;;9.80;99.90;;;;;;6329285;22;20033;-80
2024/02/10 01:23:01;;;;;;;7.13;3.42;;;9.80;99.90;;;;;;6321325;22;20011;-76
2024/02/10 01:25:31;;;;;;;9.85;4.55;;;9.90;99.90;;;;;;6326646;22;20015;-78
2024/02/10 01:28:01;;;;;;;13.65;4.18;;;9.90;99.90;;;;;;6322626;22;20026;-78
2024/02/10 01:30:30;;;;;;;8.07;4.25;;;9.90;99.90;;;;;;6295142;22;20023;-78
2024/02/10 01:32:59;;;;;;;12.90;4.68;;;9.90;99.90;;;;;;6320879;22;20058;-77
2024/02/10 01:35:36;;;;;;;8.50;4.40;;;9.90;99.90;;;;;;6321764;22;20020;-77
2024/02/10 01:38:08;;;;;;;9.65;4.13;;;10.00;99.90;;;;;;6322482;22;20015;-80
2024/02/10 01:40:38;;;;;;;8.93;3.88;;;9.90;99.90;;;;;;6327100;22;19999;-81
2024/02/10 01:43:10;;;;;;;10.35;4.03;;;9.90;99.90;;;;;;6298360;22;20078;-79
2024/02/10 01:45:39;;;;;;;7.43;3.63;;;9.90;99.90;;;;;;6319277;22;20015;-80
2024/02/10 01:48:10;;;;;;;10.27;3.97;;;9.90;99.90;;;;;;6322830;22;20043;-77
2024/02/10 01:50:53;;;;;;;10.75;3.90;;;9.90;99.90;;;;;;6321102;22;20019;-78
2024/02/10 01:53:24;;;;;;;10.07;3.88;;;10.00;99.90;;;;;;6320929;22;20011;-77
2024/02/10 01:55:56;;;;;;;11.63;3.63;;;10.00;99.90;;;;;;6320345;22;20023;-79
2024/02/10 01:58:26;;;;;;;9.55;4.65;;;10.00;99.90;;;;;;6326195;22;20334;-79
2024/02/10 02:00:56;;;;;;;7.82;3.53;;;10.00;99.90;;;;;;6324676;22;20011;-80
2024/02/10 02:03:26;;;;;;;8.90;4.10;;;10.00;99.90;;;;;;6325883;22;20019;-78
2024/02/10 02:05:56;;;;;;;7.68;4.15;;;10.00;99.90;;;;;;6325991;22;20062;-82
2024/02/10 02:08:27;;;;;;;7.10;3.92;;;9.20;99.90;;;;;;6327654;22;20471;-79
2024/02/10 02:10:55;;;;;;;10.23;4.20;;;9.90;99.90;;;;;;6296235;22;20027;-80
2024/02/10 02:13:24;;;;;;;13.63;4.53;;;9.80;99.90;;;;;;6324137;22;20082;-80
2024/02/10 02:15:57;;;;;;;10.35;3.92;;;9.90;99.90;;;;;;6326441;22;20015;-78
2024/02/10 02:18:26;;;;;;;11.73;3.60;;;10.00;99.90;;;;;;6323518;22;20466;-78
2024/02/10 02:20:58;;;;;;;8.70;4.15;;;10.00;99.90;;;;;;6321668;22;20053;-79
2024/02/10 02:23:28;;;;;;;11.30;3.78;;;10.00;99.90;;;;;;6320830;22;20027;-80
2024/02/10 02:25:57;;;;;;;9.70;3.40;;;10.00;99.90;;;;;;6323973;22;20019;-81
2024/02/10 02:28:26;;;;;;;7.97;3.70;;;10.10;99.90;;;;;;6323124;22;20087;-79
2024/02/10 02:30:54;;;;;;;9.55;4.00;;;9.90;99.90;;;;;;6323520;22;20019;-80
2024/02/10 02:33:23;;;;;;;7.00;3.30;;;10.00;99.90;;;;;;6327261;22;20019;-80
2024/02/10 02:35:53;;;;;;;7.57;3.97;;;10.30;99.90;;;;;;6322755;22;20004;-81
2024/02/10 02:38:23;;;;;;;8.50;3.58;;;10.00;99.90;;;;;;6320889;22;20041;-77
2024/02/10 02:40:54;;;;;;;13.13;3.63;;;9.90;99.90;;;;;;6319243;22;20027;-78
2024/02/10 02:43:22;;;;;;;8.95;3.78;;;10.00;99.90;;;;;;6326038;22;20003;-78
2024/02/10 02:45:51;;;;;;;8.63;3.58;;;9.90;99.90;;;;;;6321128;22;20370;-78
2024/02/10 02:48:21;;;;;;;8.35;3.10;;;9.90;99.90;;;;;;6326566;22;20053;-81
2024/02/10 02:50:50;;;;;;;12.13;4.18;;;10.00;99.90;;;;;;6320099;22;20027;-82
2024/02/10 02:53:20;;;;;;;7.38;3.22;;;9.90;99.90;;;;;;6321816;22;20094;-80
2024/02/10 02:55:49;;;;;;;9.30;3.03;;;10.00;99.90;;;;;;6320679;22;20019;-79
2024/02/10 02:58:31;;;;;;;7.05;2.75;;;9.90;99.90;;;;;;6321319;22;20027;-79
2024/02/10 03:01:07;;;;;;;7.90;3.10;;;9.90;99.90;;;;;;6318693;22;20030;-77
2024/02/10 03:03:44;;;;;;;6.45;3.03;;;10.00;99.90;;;;;;6317530;22;20026;-79
2024/02/10 03:06:27;;;;;;;12.70;3.97;;;10.10;99.90;;;;;;6319779;22;20019;-77
2024/02/10 03:08:58;;;;;;;9.15;3.45;;;10.00;99.90;;;;;;6315220;22;20043;-76
2024/02/10 03:11:28;;;;;;;8.75;3.03;;;10.10;99.90;;;;;;6292916;22;20402;-80
2024/02/10 03:13:59;;;;;;;6.40;3.47;;;10.00;99.90;;;;;;6316090;22;20021;-78
2024/02/10 03:16:33;;;;;;;9.00;2.60;;;10.10;99.90;;;;;;6293108;22;20103;-76
2024/02/10 03:19:05;;;;;;;;;;;10.10;99.90;;;;;;6321284;22;20053;-78
2024/02/10 03:21:40;;;;;;;9.52;3.00;;;10.20;99.90;;;;;;6321134;22;19965;-76
2024/02/10 03:24:20;;;;;;;7.20;2.72;;;10.10;99.90;;;;;;6316548;22;20024;-76
2024/02/10 03:26:54;;;;;;;6.82;3.22;;;10.20;99.90;;;;;;6316647;22;20090;-77
2024/02/10 03:29:30;;;;;;;9.32;3.30;;;10.20;99.90;;;;;;6319476;22;20046;-78
2024/02/10 03:32:12;;;;;;;6.82;3.03;;;10.20;99.90;;;;;;6292376;22;20467;-77
2024/02/10 03:34:41;;;;;;;8.38;2.75;;;11.50;99.90;;;;;;6322522;22;20031;-80
2024/02/10 03:37:12;;;;;;;9.35;2.70;;;10.30;99.90;;;;;;6327303;22;20011;-82
2024/02/10 03:39:43;;;;;;;9.05;2.75;;;10.40;99.90;;;;;;6328265;22;20011;-82
2024/02/10 03:42:13;;;;;;;6.22;2.75;;;11.30;99.90;;;;;;6328798;22;20046;-82
2024/02/10 03:44:46;;;;;;;4.60;2.72;;;10.20;99.90;;;;;;6328918;22;20035;-81
2024/02/10 03:47:15;;;;;;;7.57;2.85;;;9.90;99.90;;;;;;6329295;22;20025;-79
2024/02/10 03:49:47;;;;;;;9.27;3.33;;;10.30;99.90;;;;;;6330084;22;20090;-82
2024/02/10 03:52:17;;;;;;;7.45;2.97;;;10.90;99.90;;;;;;6329548;22;20496;-82
2024/02/10 03:54:51;;;;;;;7.05;2.92;;;10.20;99.90;;;;;;6329772;22;20022;-82
2024/02/10 03:57:21;;;;;;;10.50;2.63;;;10.20;99.90;;;;;;6329035;22;20022;-81
2024/02/10 03:59:52;;;;;;;7.72;2.65;;;10.40;99.90;;;;;;6330033;22;20030;-81
2024/02/10 04:02:24;;;;;;;6.50;2.72;;;9.10;99.90;;;;;;6328853;22;20106;-82
2024/02/10 04:04:55;;;;;;;10.77;3.97;;;11.50;99.90;;;;;;6329430;22;20016;-83
2024/02/10 04:07:27;;;;;;;10.80;2.58;;;9.10;99.90;;;;;;6329814;22;20023;-81
2024/02/10 04:09:58;;;;;;;7.18;2.78;;;10.20;99.90;;;;;;6328289;22;20031;-82
2024/02/10 04:12:30;;;;;;;6.05;2.17;;;10.20;99.90;;;;;;6328176;22;20018;-83
2024/02/10 04:15:30;;;;;;;6.28;3.40;;;10.20;99.90;;;;;;6268759;22;20031;-82
2024/02/10 04:18:08;;;;;;;8.73;2.72;;;10.10;99.90;;;;;;6270720;22;20023;-80
2024/02/10 04:20:41;;;;;;;8.32;2.60;;;10.20;99.90;;;;;;6271543;22;20043;-80
2024/02/10 04:23:11;;;;;;;10.02;3.35;;;10.20;99.90;;;;;;6270362;22;20030;-83
2024/02/10 04:25:42;;;;;;;6.97;2.20;;;9.90;99.90;;;;;;6271146;22;20042;-82
2024/02/10 04:28:11;;;;;;;6.35;2.78;;;10.10;99.90;;;;;;6270202;22;20087;-80
2024/02/10 04:30:41;;;;;;;5.63;2.58;;;10.10;99.90;;;;;;6270112;22;20070;-82
2024/02/10 04:33:12;;;;;;;9.57;2.58;;;10.50;99.90;;;;;;6289273;22;20015;-83
2024/02/10 04:35:42;;;;;;;8.43;2.63;;;10.10;99.90;;;;;;6328933;22;20027;-82
2024/02/10 04:38:13;;;;;;;6.40;2.55;;;10.10;99.90;;;;;;6328238;22;20003;-80
2024/02/10 04:40:43;;;;;;;9.65;3.15;;;10.20;99.90;;;;;;6328849;22;20083;-82
2024/02/10 04:43:17;;;;;;;14.50;3.28;;;10.00;99.90;;;;;;6328973;22;20019;-81
2024/02/10 04:45:49;;;;;;;8.13;3.00;;;10.00;99.90;;;;;;6254227;22;20095;-80
2024/02/10 04:48:19;;;;;;;10.73;2.80;;;10.10;99.90;;;;;;6329791;22;20019;-83
2024/02/10 04:50:56;;;;;;;5.72;2.40;;;10.00;99.90;;;;;;6329277;22;20011;-82
2024/02/10 04:53:51;;;;;;;7.05;2.55;;;10.00;99.90;;;;;;6329756;22;20361;-82
2024/02/10 04:56:20;;;;;;;9.13;2.47;;;10.00;99.90;;;;;;6328492;22;20022;-83
2024/02/10 04:58:50;;;;;;;7.40;2.88;;;9.90;99.90;;;;;;6328993;22;20026;-82
2024/02/10 05:01:31;;;;;;;7.38;2.47;;;10.00;99.90;;;;;;6328590;22;20015;-83
2024/02/10 05:04:03;;;;;;;4.00;2.08;;;9.50;99.90;;;;;;6328962;22;20019;-82
2024/02/10 05:06:32;;;;;;;7.50;2.55;;;9.10;99.90;;;;;;6329226;22;20029;-80
2024/02/10 05:09:01;;;;;;;8.75;2.10;;;9.90;99.90;;;;;;6329828;22;20071;-80
2024/02/10 05:11:31;;;;;;;8.60;3.47;;;10.20;99.90;;;;;;6328951;22;20015;-83
2024/02/10 05:14:05;;;;;;;7.88;2.35;;;9.40;99.90;;;;;;6302442;22;20027;-80
2024/02/10 05:16:35;;;;;;;9.23;2.45;;;10.10;99.90;;;;;;6327551;22;20041;-83
2024/02/10 05:19:06;;;;;;;4.82;2.28;;;9.90;99.90;;;;;;6327051;22;20053;-84
2024/02/10 05:21:40;;;;;;;10.77;3.10;;;9.80;99.90;;;;;;6327533;22;20026;-82
2024/02/10 05:24:15;;;;;;;7.75;2.80;;;9.80;99.90;;;;;;6328298;22;20089;-83
2024/02/10 05:26:44;;;;;;;8.80;2.28;;;9.80;99.90;;;;;;6328330;22;20326;-83
2024/02/10 05:29:14;;;;;;;7.50;2.20;;;9.80;99.90;;;;;;6327843;22;20411;-83
2024/02/10 05:31:47;;;;;;;5.10;2.65;;;10.60;99.90;;;;;;6326636;22;20390;-79
2024/02/10 05:34:17;;;;;;;7.22;2.67;;;9.80;99.90;;;;;;6329901;22;20026;-83
2024/02/10 05:36:46;;;;;;;7.75;2.40;;;9.80;99.90;;;;;;6329023;22;20007;-84
2024/02/10 05:39:24;;;;;;;9.27;2.92;;;10.40;99.90;;;;;;6326567;22;20083;-80
2024/02/10 05:41:54;;;;;;;4.95;1.67;;;9.80;99.90;;;;;;6328247;22;20034;-83
2024/02/10 05:44:26;;;;;;;5.85;2.33;;;9.90;99.90;;;;;;6302275;22;20019;-80
2024/02/10 05:47:00;;;;;;;4.32;2.15;;;9.90;99.90;;;;;;6327276;22;20023;-83
2024/02/10 05:49:34;;;;;;;6.68;1.77;;;9.90;99.90;;;;;;6327607;22;20027;-81
2024/02/10 05:52:05;;;;;;;5.90;2.10;;;9.80;99.90;;;;;;6329008;22;20030;-83
2024/02/10 05:54:35;;;;;;;5.88;2.47;;;9.90;99.90;;;;;;6328187;22;20045;-83
2024/02/10 05:57:04;;;;;;;5.25;2.08;;;9.90;99.90;;;;;;6328139;22;20464;-81
2024/02/10 05:59:32;;;;;;;8.13;2.95;;;10.00;99.90;;;;;;6327539;22;20019;-80
2024/02/10 06:02:05;;;;;;;5.28;2.00;;;9.90;99.90;;;;;;6328363;22;20010;-83
2024/02/10 06:04:34;;;;;;;7.22;2.35;;;10.00;99.90;;;;;;6327672;22;20047;-83
2024/02/10 06:07:08;;;;;;;6.07;1.98;;;10.00;99.90;;;;;;6327743;22;20087;-80
2024/02/10 06:10:00;;;;;;;12.00;3.00;;;9.90;99.90;;;;;;6241016;23;20096;-81
2024/02/10 06:12:29;;;;;;;7.03;2.00;;;9.90;99.90;;;;;;6238679;23;20020;-80
2024/02/10 06:15:04;;;;;;;4.53;1.90;;;10.00;99.90;;;;;;6240449;23;20800;-81
2024/02/10 06:17:35;;;;;;;6.22;2.47;;;10.00;99.90;;;;;;6241038;23;20016;-82
2024/02/10 06:20:12;;;;;;;5.55;2.13;;;10.00;99.90;;;;;;6240133;23;20024;-84
2024/02/10 06:22:46;;;;;;;5.65;2.42;;;10.00;99.90;;;;;;6189497;23;20028;-82
2024/02/10 06:25:22;;;;;;;5.05;2.65;;;10.00;99.90;;;;;;6238918;23;20020;-81
2024/02/10 06:27:52;;;;;;;6.25;2.08;;;10.00;99.90;;;;;;6269862;22;20037;-82
2024/02/10 06:30:24;;;;;;;6.57;2.33;;;10.10;99.90;;;;;;6301952;22;20041;-80
2024/02/10 06:32:55;;;;;;;7.93;2.30;;;10.00;99.90;;;;;;6327383;22;20009;-80
2024/02/10 06:35:27;;;;;;;6.40;2.53;;;10.10;99.90;;;;;;6328781;22;20050;-82
2024/02/10 06:38:00;;;;;;;8.18;2.30;;;10.10;99.90;;;;;;6327476;22;20067;-80
2024/02/10 06:40:29;;;;;;;;;;;10.00;99.90;;;;;;6327499;22;20019;-83
2024/02/10 06:43:00;;;;;;;8.60;2.30;;;10.10;99.90;;;;;;6327607;22;19920;-80
2024/02/10 06:45:30;;;;;;;8.93;2.47;;;10.00;99.90;;;;;;6325381;22;20015;-81
2024/02/10 06:48:01;;;;;;;6.60;2.03;;;10.10;99.90;;;;;;6326810;22;20038;-82
2024/02/10 06:50:36;;;;;;;5.43;2.30;;;10.00;99.90;;;;;;6328388;22;20619;-81
2024/02/10 06:53:09;;;;;;;6.45;1.90;;;9.20;99.90;;;;;;6327305;22;20251;-83
2024/02/10 06:55:38;;;;;;;6.25;2.17;;;10.30;99.90;;;;;;6326942;22;20015;-79
2024/02/10 06:58:07;;;;;;;9.15;2.63;;;10.40;99.90;;;;;;6327483;22;20034;-79
2024/02/10 07:03:31;;;;;;;8.50;2.20;;;10.50;99.90;;;;;;6267605;23;20026;-81
2024/02/10 07:06:09;;;;;;;6.30;2.63;;;9.90;99.90;;;;;;6165357;23;20031;-78
2024/02/10 07:09:03;;;;;;;8.00;1.92;;;10.60;99.90;;;;;;6265405;23;20016;-80
2024/02/10 07:11:43;;;;;;;7.30;1.88;;;10.70;99.90;;;;;;6240486;23;20020;-79
2024/02/10 07:14:19;;;;;;;6.65;2.35;;;11.00;99.90;;;;;;6206195;23;20021;-78
2024/02/10 07:16:48;;;;;;;;;;;10.80;99.90;;;;;;6204390;23;20112;-79
2024/02/10 07:19:36;;;;;;;6.80;2.78;;;10.80;99.90;;;;;;6181925;23;20004;-80
2024/02/10 07:22:33;;;;;;;8.93;2.72;;;10.90;99.90;;;;;;6173253;23;20049;-78
2024/02/10 07:25:11;;;;;;;6.93;2.20;;;11.00;99.90;;;;;;6149063;23;20570;-79
2024/02/10 07:27:48;;;;;;;7.82;2.28;;;11.00;99.90;;;;;;6159386;23;20024;-82
2024/02/10 07:30:51;;;;;;;7.30;2.38;;;11.10;99.90;;;;;;6266647;23;20038;-80
2024/02/10 07:33:28;;;;;;;6.95;2.83;;;11.00;99.90;;;;;;6192883;23;20030;-80
2024/02/10 07:48:42;;;;;;;6.68;1.95;;;11.20;99.90;;;;;;5142703;27;21029;-78
2024/02/10 07:51:11;;;;;;;7.07;1.88;;;11.50;99.90;;;;;;5098312;28;20135;-77
2024/02/10 07:53:44;;;;;;;5.45;1.92;;;11.60;99.90;;;;;;5120112;27;20044;-81
2024/02/10 07:56:13;;;;;;;7.15;2.15;;;11.70;99.90;;;;;;5113645;27;20100;-79
2024/02/10 07:58:41;;;;;;;7.05;2.22;;;11.80;99.90;;;;;;5105324;27;20039;-81
2024/02/10 08:01:11;;;;;;;7.57;2.00;;;11.80;99.90;;;;;;5112105;28;20089;-80
2024/02/10 08:03:44;;;;;;;8.25;2.60;;;11.90;99.90;;;;;;5100397;27;20040;-79
2024/02/10 08:06:13;;;;;;;7.80;1.80;;;11.90;99.90;;;;;;5095227;28;20282;-79
2024/02/10 08:08:41;;;;;;;6.72;2.22;;;12.00;99.90;;;;;;5112865;27;20040;-78
2024/02/10 08:11:11;;;;;;;6.68;2.10;;;12.10;99.90;;;;;;5111578;27;20126;-78
2024/02/10 08:13:41;;;;;;;5.43;2.03;;;12.20;99.90;;;;;;5117916;27;20080;-79
2024/02/10 08:16:11;;;;;;;6.43;3.08;;;12.30;99.90;;;;;;5096572;27;20051;-79
2024/02/10 08:18:41;;;;;;;5.28;2.20;;;12.20;99.90;;;;;;5108461;27;20035;-77
2024/02/10 08:21:11;;;;;;;5.80;1.92;;;12.30;99.90;;;;;;5113768;27;20051;-85
2024/02/10 08:23:42;;;;;;;5.47;1.90;;;12.30;99.90;;;;;;5131147;27;20546;-77
2024/02/10 08:26:11;;;;;;;5.85;1.85;;;12.40;99.90;;;;;;5096243;27;20401;-82
2024/02/10 08:28:40;;;;;;;3.40;1.67;;;12.50;99.90;;;;;;5098545;28;20050;-79
2024/02/10 08:31:09;;;;;;;7.55;2.20;;;12.50;99.90;;;;;;5126440;27;20764;-82
2024/02/10 08:33:37;;;;;;;4.22;1.88;;;12.50;99.90;;;;;;5098332;27;20071;-81
2024/02/10 08:36:05;;;;;;;7.85;2.03;;;12.60;99.90;;;;;;5114286;27;20047;-80
2024/02/10 08:38:37;;;;;;;5.90;2.50;;;12.60;99.90;;;;;;5094724;27;20403;-83
2024/02/10 08:41:06;;;;;;;6.45;2.45;;;12.60;99.90;;;;;;5099829;27;20130;-79
2024/02/10 08:43:36;;;;;;;6.93;2.10;;;12.60;99.90;;;;;;5101486;27;20062;-76
2024/02/10 08:46:05;;;;;;;9.25;2.47;;;12.60;99.90;;;;;;5118697;27;20124;-80
2024/02/10 08:48:33;;;;;;;5.72;1.70;;;12.70;99.90;;;;;;5102842;27;20135;-77
2024/02/10 08:51:02;;;;;;;5.18;1.75;;;12.80;99.90;;;;;;5085403;28;20043;-78
2024/02/10 08:53:32;;;;;;;6.88;1.70;;;12.90;99.90;;;;;;5098482;27;20047;-77
2024/02/10 08:56:08;;;;;;;7.78;1.88;;;13.00;99.90;;;;;;5082146;28;20504;-84
2024/02/10 08:58:39;;;;;;;7.10;2.38;;;13.10;99.90;;;;;;5100324;27;20568;-76
2024/02/10 09:01:15;;;;;;;4.70;1.73;;;13.00;99.90;;;;;;5096676;27;20056;-79
2024/02/10 09:03:48;;;;;;;7.43;2.88;;;13.10;99.90;;;;;;5083201;28;20123;-80
2024/02/10 09:06:21;;;;;;;;;;;13.10;99.90;;;;;;5097604;27;20048;-76
2024/02/10 09:08:50;;;;;;;5.07;1.45;;;13.20;99.90;;;;;;5102593;27;20354;-77
2024/02/10 09:11:25;;;;;;;5.10;1.85;;;13.20;99.90;;;;;;5079915;28;20066;-79
2024/02/10 09:13:55;;;;;;;6.50;2.03;;;13.40;99.90;;;;;;5098490;27;20074;-78
2024/02/10 09:16:26;;;;;;;7.35;1.58;;;13.50;99.90;;;;;;5098423;28;20036;-79
2024/02/10 09:18:55;;;;;;;5.43;1.27;;;13.50;99.90;;;;;;5102109;27;20036;-79
2024/02/10 09:21:23;;;;;;;5.25;2.50;;;13.60;99.90;;;;;;5105706;28;20080;-78
2024/02/10 09:23:54;;;;;;;6.95;1.77;;;13.60;99.90;;;;;;5087406;28;20150;-76
2024/02/10 09:26:27;;;;;;;5.80;1.75;;;13.60;99.90;;;;;;5101443;28;20055;-75
2024/02/10 09:28:56;;;;;;;7.90;1.65;;;13.60;99.90;;;;;;5085711;28;20383;-78
2024/02/10 09:31:27;;;;;;;5.20;1.55;;;13.60;99.90;;;;;;5057541;28;20052;-80
2024/02/10 09:33:56;;;;;;;2.42;1.33;;;13.60;99.90;;;;;;5058868;28;20056;-78
2024/02/10 09:36:26;;;;;;;6.70;2.55;;;13.70;99.90;;;;;;5059859;28;20076;-78
2024/02/10 09:38:57;;;;;;;6.40;2.38;;;13.70;99.90;;;;;;5058000;28;20048;-79
2024/02/10 09:41:29;;;;;;;9.32;1.50;;;13.60;99.90;;;;;;5059332;28;20056;-79
2024/02/10 09:43:57;;;;;;;4.43;1.42;;;13.80;99.90;;;;;;5039586;28;20068;-78
2024/02/10 09:46:26;;;;;;;5.72;1.70;;;14.00;99.90;;;;;;5058650;28;20052;-79
2024/02/10 09:48:56;;;;;;;5.68;2.10;;;14.00;99.90;;;;;;5059996;28;20069;-79
2024/02/10 09:51:25;;;;;;;4.93;2.03;;;14.20;99.90;;;;;;5028996;28;20447;-77
2024/02/10 09:53:55;;;;;;;7.70;1.63;;;14.30;99.90;;;;;;5076328;28;20310;-78
2024/02/10 09:56:25;;;;;;;6.88;1.50;;;14.20;99.90;;;;;;5040387;28;20049;-77
2024/02/10 09:58:55;;;;;;;7.47;2.05;;;14.20;99.90;;;;;;5038604;28;20403;-81
2024/02/10 10:01:31;;;;;;;7.55;1.88;;;14.30;99.90;;;;;;5061378;28;20488;-78
2024/02/10 10:04:00;;;;;;;7.75;1.80;;;14.40;99.90;;;;;;5100079;27;20047;-77
2024/02/10 10:06:30;;;;;;;4.55;1.60;;;14.50;99.90;;;;;;5102524;28;20051;-83
2024/02/10 10:08:59;;;;;;;5.82;1.98;;;14.50;99.90;;;;;;5085802;28;20603;-77
2024/02/10 10:11:30;;;;;;;5.45;1.48;;;14.60;99.90;;;;;;5099535;27;20044;-76
2024/02/10 10:14:00;;;;;;;4.28;1.40;;;14.70;99.90;;;;;;5101315;27;20031;-76
2024/02/10 10:16:29;;;;;;;6.15;1.70;;;14.80;99.90;;;;;;5086056;27;20131;-78
2024/02/10 10:19:00;;;;;;;5.13;1.55;;;14.90;99.90;;;;;;5103736;28;20043;-76
2024/02/10 10:21:31;;;;;;;4.30;1.92;;;14.80;99.90;;;;;;5102139;28;20082;-80
2024/02/10 10:24:00;;;;;;;5.47;1.58;;;14.80;99.90;;;;;;5106641;27;20066;-77
2024/02/10 10:26:28;;;;;;;6.28;2.00;;;14.90;99.90;;;;;;5101395;28;20192;-77
2024/02/10 10:28:57;;;;;;;4.13;1.17;;;14.90;99.90;;;;;;5084755;27;20561;-77
2024/02/10 10:31:29;;;;;;;9.10;2.35;;;15.00;99.90;;;;;;5100182;28;20047;-79
2024/02/10 10:33:59;;;;;;;8.82;1.65;;;15.10;99.90;;;;;;5103537;27;20104;-78
2024/02/10 10:36:28;;;;;;;4.43;1.13;;;15.00;99.90;;;;;;5083345;28;20075;-76
2024/02/10 10:38:59;;;;;;;5.20;1.83;;;15.20;99.90;;;;;;5081488;28;20554;-76
2024/02/10 10:41:27;;;;;;;5.63;2.00;;;15.20;99.50;;;;;;5103704;28;20143;-78
2024/02/10 10:43:58;;;;;;;6.53;2.05;;;15.30;99.70;;;;;;5107018;27;20130;-75
2024/02/10 10:46:30;;;;;;;5.35;1.40;;;15.20;99.00;;;;;;5105557;28;20032;-76
2024/02/10 10:49:01;;;;;;;4.78;1.30;;;15.20;98.90;;;;;;5088066;28;20125;-83
2024/02/10 10:51:35;;;;;;;5.78;1.65;;;15.20;98.60;;;;;;5100615;28;20082;-78
2024/02/10 10:54:06;;;;;;;6.38;2.03;;;15.20;98.80;;;;;;5101294;27;20040;-77
2024/02/10 10:56:36;;;;;;;4.03;1.58;;;15.10;98.80;;;;;;5085989;28;20063;-74
2024/02/10 10:59:09;;;;;;;6.82;1.95;;;15.20;98.60;;;;;;5098499;27;20063;-75
2024/02/10 11:01:41;;;;;;;4.22;1.00;;;15.20;98.20;;;;;;5098476;27;20569;-75
2024/02/10 11:04:13;;;;;;;2.90;1.42;;;15.20;98.40;;;;;;5099308;28;20071;-74
2024/02/10 11:06:45;;;;;;;4.15;1.27;;;15.20;97.80;;;;;;5082878;28;20043;-75
2024/02/10 11:09:20;;;;;;;5.65;1.23;;;15.20;97.50;;;;;;5085560;28;20052;-78
2024/02/10 11:11:49;;;;;;;3.95;1.08;;;15.20;97.20;;;;;;5082197;28;20643;-79
2024/02/10 11:14:18;;;;;;;6.00;1.02;;;15.30;97.00;;;;;;5101650;28;20046;-77
2024/02/10 11:16:50;;;;;;;8.88;1.30;;;15.30;96.50;;;;;;5099371;28;20043;-74
2024/02/10 11:19:18;;;;;;;5.05;1.00;;;15.30;96.40;;;;;;5098115;27;20399;-80
2024/02/10 11:21:47;;;;;;;7.40;1.50;;;15.40;96.20;;;;;;5079012;28;20039;-76
2024/02/10 11:24:17;;;;;;;3.85;1.20;;;15.50;96.20;;;;;;5098746;28;20084;-77
2024/02/10 11:26:47;;;;;;;5.60;1.10;;;15.60;95.30;;;;;;5099827;28;20048;-75
2024/02/10 11:29:18;;;;;;;6.28;1.27;;;15.60;94.90;;;;;;5101635;28;20040;-75
2024/02/10 11:31:48;;;;;;;4.38;1.35;;;15.70;95.30;;;;;;5080492;28;20051;-76
2024/02/10 11:34:17;;;;;;;5.65;0.95;;;15.70;95.00;;;;;;5064711;28;20143;-74
2024/02/10 11:36:51;;;;;;;4.82;1.60;;;15.70;94.90;;;;;;5100676;28;20051;-76
2024/02/10 11:39:22;;;;;;;7.50;1.60;;;15.70;95.20;;;;;;5099012;28;20039;-75
2024/02/10 11:41:55;;;;;;;5.78;1.42;;;15.70;95.00;;;;;;5096515;28;20043;-81
2024/02/10 11:44:26;;;;;;;6.35;1.33;;;15.60;95.00;;;;;;5083792;28;20051;-79
2024/02/10 11:46:59;;;;;;;11.02;1.45;;;15.60;95.30;;;;;;5099427;28;20063;-75
2024/02/10 11:49:28;;;;;;;6.53;1.05;;;15.60;95.30;;;;;;5101319;28;20040;-75
2024/02/10 11:51:58;;;;;;;6.68;1.02;;;15.60;95.20;;;;;;5101014;28;20056;-77
2024/02/10 11:54:28;;;;;;;3.28;1.15;;;15.60;95.20;;;;;;5103002;28;20051;-74
2024/02/10 11:57:00;;;;;;;5.60;1.23;;;15.60;95.70;;;;;;5081129;28;20050;-77
2024/02/10 11:59:30;;;;;;;3.47;0.60;;;15.70;95.30;;;;;;5083748;28;20309;-76
2024/02/10 12:02:00;;;;;;;4.85;0.75;;;15.80;95.20;;;;;;5104042;28;20130;-73
2024/02/10 12:04:32;;;;;;;4.72;0.77;;;15.80;95.60;;;;;;5096726;28;20147;-75
2024/02/10 12:07:02;;;;;;;2.67;1.25;;;15.80;95.50;;;;;;5096616;28;20511;-71
2024/02/10 12:09:31;;;;;;;3.72;1.20;;;15.80;95.60;;;;;;5100391;28;20037;-76
2024/02/10 12:12:01;;;;;;;7.60;1.67;;;15.90;95.60;;;;;;5087511;28;20078;-73
2024/02/10 12:14:30;;;;;;;2.42;0.88;;;15.90;95.80;;;;;;5113417;27;20040;-77
2024/02/10 12:17:05;;;;;;;5.75;1.55;;;15.90;95.80;;;;;;5097925;28;20064;-73
2024/02/10 12:19:37;;;;;;;7.13;1.23;;;15.90;95.50;;;;;;5103893;28;20558;-74
2024/02/10 12:22:09;;;;;;;4.28;1.08;;;15.90;95.90;;;;;;5085900;28;20043;-73
2024/02/10 12:24:40;;;;;;;5.30;1.23;;;15.90;96.00;;;;;;5105368;27;20047;-75
2024/02/10 12:27:09;;;;;;;3.70;0.73;;;16.10;95.40;;;;;;5087252;28;20046;-73
2024/02/10 12:29:38;;;;;;;2.50;0.82;;;16.20;95.20;;;;;;5102989;28;20048;-74
2024/02/10 12:32:11;;;;;;;4.90;0.77;;;16.20;95.00;;;;;;5103999;28;20052;-75
2024/02/10 12:34:40;;;;;;;2.80;0.68;;;16.30;94.70;;;;;;5102290;28;22516;-75
2024/02/10 12:37:10;;;;;;;5.80;0.90;;;16.30;94.80;;;;;;5106150;28;20071;-73
2024/02/10 12:39:40;;;;;;;5.65;0.80;;;16.30;94.60;;;;;;5107170;28;20050;-78
2024/02/10 12:42:09;;;;;;;8.20;1.00;;;16.30;94.40;;;;;;5108440;28;20503;-74
2024/02/10 12:44:38;;;;;;;3.33;0.88;;;16.40;94.10;;;;;;5105506;28;20054;-76
2024/02/10 12:47:09;;;;;;;5.47;0.80;;;16.30;94.60;;;;;;5109065;28;20093;-76
2024/02/10 12:49:43;;;;;;;4.95;0.50;;;16.40;94.30;;;;;;5108375;27;20047;-77
2024/02/10 12:52:13;;;;;;;4.18;0.77;;;16.40;94.10;;;;;;5101728;28;20055;-75
2024/02/10 12:54:41;;;;;;;4.88;0.90;;;16.50;93.90;;;;;;5090399;27;20063;-73
2024/02/10 12:57:10;;;;;;;6.15;0.80;;;16.50;93.80;;;;;;5087346;28;20052;-75
2024/02/10 12:59:38;;;;;;;4.68;0.82;;;16.40;93.80;;;;;;5088769;28;20031;-73
2024/02/10 13:02:08;;;;;;;4.55;1.02;;;16.40;93.40;;;;;;5104791;28;20834;-74
2024/02/10 13:04:45;;;;;;;4.63;1.05;;;16.40;93.40;;;;;;5089519;28;20056;-73
2024/02/10 13:07:15;;;;;;;7.97;2.33;;;16.40;93.40;;;;;;5084803;27;20055;-73
2024/02/10 13:09:43;;;;;;;5.35;1.17;;;16.50;93.00;;;;;;5104331;27;20032;-74
2024/02/10 13:12:12;;;;;;;4.07;0.95;;;16.50;93.00;;;;;;5103774;27;20092;-76
2024/02/10 13:14:40;;;;;;;7.43;1.02;;;16.50;92.80;;;;;;5101748;27;20482;-76
2024/02/10 13:17:08;;;;;;;7.93;1.23;;;16.60;92.50;;;;;;5104023;27;20063;-74
2024/02/10 13:19:39;;;;;;;7.30;1.50;;;16.60;92.50;;;;;;5102440;27;20116;-72
2024/02/10 13:22:11;;;;;;;5.55;0.80;;;16.60;92.30;;;;;;5087146;28;20056;-75
2024/02/10 13:24:39;;;;;;;6.80;1.02;;;16.60;92.30;;;;;;5104864;27;20039;-74
2024/02/10 13:27:08;;;;;;;4.63;0.68;;;16.60;92.30;;;;;;5100839;27;20498;-74